logo
Search for airport 
image banner adimage banner adimage banner ad
image banner ad

FA0278 - Sun City Resort Helistop

Located in , South Africa

ICAO - , IATA -

Data provided by Airmate  

General information

Coordinates: S25°20'30" E27°4'55"
Elevation is 3783 feet MSL.
 
View others Airports in North-West

Operational data

Special qualification required
Current time UTC:
Current local time:
Weather at : - ( 0 km )
METAR: PAWN 150843Z AUTO 16015KT 2SM -SN BR FEW007 OVC015 M04/M06 A3000 RMK AO2 PK WND 16027/0807 P0000 FZRANO
View NOTAMs / SUP AIP / TFR affecting this airport [VIEW]
Communications frequencies: [VIEW]

Runways:

Airport contact information

Address: South Africa

Satellite view of FA0278